createdAt,value
2022-10-05T00:03:37.229Z,2.60
2022-10-05T00:08:39.177Z,3.53
2022-10-05T00:13:42.044Z,2.95
2022-10-05T00:18:50.640Z,2.40
2022-10-05T00:23:55.845Z,2.55
2022-10-05T00:28:57.733Z,2.35
2022-10-05T00:33:59.445Z,2.80
2022-10-05T00:39:02.082Z,2.50
2022-10-05T00:44:09.797Z,2.97
2022-10-05T00:49:46.312Z,2.80
2022-10-05T00:55:06.742Z,3.15
2022-10-05T01:00:13.904Z,2.65
2022-10-05T01:05:56.942Z,3.25
2022-10-05T01:11:20.828Z,2.85
2022-10-05T01:16:41.613Z,3.30
2022-10-05T01:21:54.264Z,3.30
2022-10-05T01:27:08.834Z,3.25
2022-10-05T01:32:23.771Z,3.63
2022-10-05T01:37:37.965Z,3.58
2022-10-05T01:43:04.100Z,3.00
2022-10-05T01:48:13.741Z,3.70
2022-10-05T01:53:45.817Z,2.30
2022-10-05T01:59:02.137Z,1.90
2022-10-05T02:04:29.576Z,2.53
2022-10-05T02:09:45.291Z,2.70
2022-10-05T02:14:55.547Z,2.33
2022-10-05T02:20:05.118Z,2.30
2022-10-05T02:25:14.551Z,2.70
2022-10-05T02:30:17.826Z,2.80
2022-10-05T02:35:22.771Z,2.90
2022-10-05T02:41:03.151Z,3.30
2022-10-05T02:46:19.281Z,3.33
2022-10-05T02:51:26.901Z,2.33
2022-10-05T02:56:37.254Z,2.97
2022-10-05T03:01:51.695Z,2.92
2022-10-05T03:07:18.647Z,2.97
2022-10-05T03:12:37.355Z,3.40
2022-10-05T03:18:05.873Z,3.47
2022-10-05T03:23:17.282Z,2.58
2022-10-05T03:28:50.736Z,2.40
2022-10-05T03:34:00.577Z,1.90
2022-10-05T03:39:20.354Z,2.63
2022-10-05T03:45:03.426Z,2.10
2022-10-05T03:50:20.124Z,2.30
2022-10-05T03:55:37.274Z,3.10
2022-10-05T04:00:43.864Z,2.97
2022-10-05T04:05:50.773Z,2.50
2022-10-05T04:10:57.104Z,2.90
2022-10-05T04:16:08.734Z,3.45
2022-10-05T04:21:32.852Z,2.85
2022-10-05T04:26:49.892Z,3.55
2022-10-05T04:32:05.583Z,2.20
2022-10-05T04:37:35.158Z,2.78
2022-10-05T04:42:52.616Z,3.85
2022-10-05T04:48:35.629Z,5.40
2022-10-05T04:53:54.145Z,4.82
2022-10-05T04:59:17.029Z,4.47
2022-10-05T05:05:03.538Z,4.13
2022-10-05T05:10:43.683Z,3.75
2022-10-05T05:16:44.495Z,3.78
2022-10-05T05:22:02.853Z,3.58
2022-10-05T05:27:43.232Z,3.85
2022-10-05T05:33:14.602Z,6.15
2022-10-05T05:38:16.765Z,4.97
2022-10-05T05:43:30.454Z,8.35
2022-10-05T05:48:38.931Z,4.82
2022-10-05T05:53:48.873Z,9.32
2022-10-05T05:58:57.818Z,7.40
2022-10-05T06:04:15.779Z,7.05
2022-10-05T06:09:41.774Z,7.80
2022-10-05T06:15:05.739Z,8.35
2022-10-05T06:20:20.441Z,9.73
2022-10-05T06:25:31.205Z,9.27
2022-10-05T06:31:02.057Z,8.02
2022-10-05T06:36:09.507Z,7.20
2022-10-05T06:41:14.436Z,8.25
2022-10-05T06:46:51.577Z,7.22
2022-10-05T06:52:12.977Z,6.32
2022-10-05T06:57:49.468Z,5.88
2022-10-05T07:03:10.409Z,5.50
2022-10-05T07:08:38.236Z,5.90
2022-10-05T07:13:58.320Z,5.60
2022-10-05T07:19:19.123Z,4.53
2022-10-05T07:24:33.841Z,3.75
2022-10-05T07:29:54.266Z,4.03
2022-10-05T07:35:01.730Z,3.42
2022-10-05T07:40:09.586Z,3.10
2022-10-05T07:45:52.300Z,3.55
2022-10-05T07:50:54.778Z,3.17
2022-10-05T07:56:03.228Z,3.65
2022-10-05T08:01:26.596Z,3.20
2022-10-05T08:06:38.398Z,3.55
2022-10-05T08:12:12.497Z,2.90
2022-10-05T08:17:39.901Z,3.13
2022-10-05T08:22:47.931Z,3.50
2022-10-05T08:28:05.119Z,3.17
2022-10-05T08:33:12.832Z,3.58
2022-10-05T08:38:17.198Z,3.35
2022-10-05T08:44:03.828Z,3.90
2022-10-05T08:49:11.698Z,3.15
2022-10-05T08:54:16.398Z,3.70
2022-10-05T08:59:52.849Z,3.20
2022-10-05T09:05:15.319Z,3.45
2022-10-05T09:10:34.172Z,3.15
2022-10-05T09:16:09.460Z,3.30
2022-10-05T09:21:29.801Z,2.70
2022-10-05T09:26:40.482Z,2.67
2022-10-05T09:32:06.656Z,2.10
2022-10-05T09:37:33.434Z,2.28
2022-10-05T09:42:54.035Z,2.08
2022-10-05T09:48:27.247Z,2.58
2022-10-05T09:53:40.711Z,2.50
2022-10-05T09:59:24.121Z,2.15
2022-10-05T10:05:01.723Z,2.20
2022-10-05T10:10:40.072Z,2.30
2022-10-05T10:16:09.243Z,2.10
2022-10-05T10:21:22.952Z,2.30
2022-10-05T10:26:48.590Z,1.88
2022-10-05T10:32:14.570Z,2.50
2022-10-05T10:37:39.412Z,2.28
2022-10-05T10:42:59.232Z,1.98
2022-10-05T10:48:11.253Z,2.25
2022-10-05T10:53:40.318Z,2.00
2022-10-05T10:59:03.991Z,2.15
2022-10-05T11:04:40.327Z,2.20
2022-10-05T11:10:12.762Z,2.35
2022-10-05T11:15:52.241Z,1.98
2022-10-05T11:21:03.100Z,2.20
2022-10-05T11:26:34.370Z,2.03
2022-10-05T11:32:06.286Z,2.00
2022-10-05T11:37:39.869Z,2.10
2022-10-05T11:42:58.730Z,2.10
2022-10-05T11:48:25.678Z,1.80
2022-10-05T11:53:46.471Z,1.80
2022-10-05T11:58:58.435Z,2.00
2022-10-05T12:04:15.452Z,1.60
2022-10-05T12:09:36.438Z,2.13
2022-10-05T12:15:01.689Z,1.83
2022-10-05T12:20:16.266Z,1.55
2022-10-05T12:25:21.680Z,1.70
2022-10-05T12:30:34.896Z,2.00
2022-10-05T12:35:50.998Z,1.70
2022-10-05T12:41:04.329Z,1.70
2022-10-05T12:46:26.709Z,2.30
2022-10-05T12:51:43.543Z,2.00
2022-10-05T12:57:06.769Z,2.08
2022-10-05T13:02:27.640Z,1.90
2022-10-05T13:07:34.152Z,1.80
2022-10-05T13:12:48.766Z,2.53
2022-10-05T13:18:02.472Z,2.13
2022-10-05T13:23:31.394Z,1.98
2022-10-05T13:29:00.553Z,1.75
2022-10-05T13:34:40.433Z,1.87
2022-10-05T13:39:48.343Z,2.08
2022-10-05T13:44:53.883Z,1.60
2022-10-05T13:50:23.620Z,1.77
2022-10-05T13:55:37.966Z,1.80
2022-10-05T14:00:54.185Z,1.80
2022-10-05T14:05:58.338Z,1.85
2022-10-05T14:11:00.483Z,1.50
2022-10-05T14:16:17.785Z,1.70
2022-10-05T14:21:24.934Z,1.88
2022-10-05T14:26:27.821Z,1.60
2022-10-05T14:31:35.407Z,1.95
2022-10-05T14:36:43.940Z,1.70
2022-10-05T14:41:48.922Z,1.60
2022-10-05T14:47:02.693Z,1.58
2022-10-05T14:52:51.686Z,1.80
2022-10-05T14:58:00.427Z,1.77
2022-10-05T15:03:18.744Z,1.85
2022-10-05T15:08:31.314Z,2.08
2022-10-05T15:13:40.130Z,1.77
2022-10-05T15:18:51.393Z,2.10
2022-10-05T15:24:14.385Z,2.22
2022-10-05T15:29:22.393Z,2.00
2022-10-05T15:34:40.667Z,2.47
2022-10-05T15:39:55.006Z,2.10
2022-10-05T15:45:20.766Z,2.17
2022-10-05T15:50:26.475Z,2.13
2022-10-05T15:55:43.586Z,2.17
2022-10-05T16:00:58.779Z,2.28
2022-10-05T16:06:24.914Z,2.38
2022-10-05T16:11:32.340Z,2.28
2022-10-05T16:16:42.103Z,2.00
2022-10-05T16:21:58.113Z,2.17
2022-10-05T16:27:07.279Z,1.70
2022-10-05T16:32:30.833Z,2.25
2022-10-05T16:37:37.027Z,2.05
2022-10-05T16:42:52.730Z,2.20
2022-10-05T16:48:00.656Z,2.30
2022-10-05T16:53:12.560Z,2.10
2022-10-05T16:58:31.010Z,1.83
2022-10-05T17:03:52.028Z,2.00
2022-10-05T17:09:18.493Z,1.80
2022-10-05T17:14:35.859Z,1.85
2022-10-05T17:19:48.965Z,1.60
2022-10-05T17:25:09.313Z,1.83
2022-10-05T17:30:31.644Z,2.13
2022-10-05T17:36:00.943Z,2.13
2022-10-05T17:41:19.596Z,1.70
2022-10-05T17:46:38.742Z,1.70
2022-10-05T17:52:16.578Z,1.77
2022-10-05T17:57:24.402Z,1.50
2022-10-05T18:02:36.163Z,1.70
2022-10-05T18:07:48.142Z,1.63
2022-10-05T18:13:20.120Z,1.40
2022-10-05T18:18:40.805Z,1.65
2022-10-05T18:23:59.986Z,1.60
2022-10-05T18:29:43.431Z,1.92
2022-10-05T18:35:02.066Z,1.88
2022-10-05T18:40:13.305Z,1.58
2022-10-05T18:45:43.015Z,1.75
2022-10-05T18:51:01.475Z,1.77
2022-10-05T18:56:30.113Z,1.67
2022-10-05T19:01:58.779Z,2.30
2022-10-05T19:07:07.802Z,2.15
2022-10-05T19:12:31.405Z,2.53
2022-10-05T19:17:55.064Z,1.92
2022-10-05T19:23:57.180Z,1.63
2022-10-05T19:29:16.490Z,2.40
2022-10-05T19:34:45.994Z,1.83
2022-10-05T19:39:58.191Z,1.80
2022-10-05T19:45:18.770Z,2.15
2022-10-05T19:50:29.887Z,2.53
2022-10-05T19:55:35.438Z,2.35
2022-10-05T20:00:37.878Z,2.03
2022-10-05T20:05:40.775Z,2.10
2022-10-05T20:10:42.754Z,2.20
2022-10-05T20:16:26.959Z,2.20
2022-10-05T20:21:43.294Z,2.47
2022-10-05T20:27:06.685Z,2.35
2022-10-05T20:32:18.102Z,2.28
2022-10-05T20:37:20.122Z,2.40
2022-10-05T20:42:23.862Z,2.40
2022-10-05T20:47:25.825Z,2.60
2022-10-05T20:52:27.411Z,2.47
2022-10-05T20:57:28.972Z,2.75
2022-10-05T21:02:31.062Z,2.40
2022-10-05T21:07:34.265Z,2.88
2022-10-05T21:12:36.129Z,2.40
2022-10-05T21:17:39.129Z,2.20
2022-10-05T21:22:41.125Z,2.78
2022-10-05T21:27:42.914Z,2.42
2022-10-05T21:32:44.990Z,3.03
2022-10-05T21:37:46.697Z,2.67
2022-10-05T21:42:48.399Z,2.90
2022-10-05T21:47:50.392Z,2.78
2022-10-05T21:52:53.539Z,2.88
2022-10-05T21:57:58.559Z,3.15
2022-10-05T22:03:00.212Z,2.97
2022-10-05T22:08:02.799Z,2.92
2022-10-05T22:13:04.637Z,2.92
2022-10-05T22:18:06.766Z,2.72
2022-10-05T22:23:08.639Z,3.00
2022-10-05T22:28:13.243Z,2.80
2022-10-05T22:33:14.872Z,3.38
2022-10-05T22:38:16.670Z,2.70
2022-10-05T22:43:18.805Z,2.58
2022-10-05T22:48:20.661Z,2.63
2022-10-05T22:53:22.791Z,2.33
2022-10-05T22:58:25.053Z,2.38
2022-10-05T23:03:27.127Z,2.15
2022-10-05T23:08:32.841Z,2.13
2022-10-05T23:13:34.549Z,2.50
2022-10-05T23:18:37.149Z,2.15
2022-10-05T23:23:41.013Z,2.53
2022-10-05T23:28:47.169Z,2.33
2022-10-05T23:33:49.824Z,2.20
2022-10-05T23:38:52.120Z,3.05
2022-10-05T23:43:55.432Z,2.47
2022-10-05T23:48:57.119Z,2.88
2022-10-05T23:53:59.806Z,3.17
2022-10-05T23:59:01.715Z,3.28
